sensor_id;sensor_type;location;lat;lon;timestamp;P1;durP1;ratioP1;P2;durP2;ratioP2
3677;SDS011;1855;50.934;6.958;2023-06-14T00:02:02;6.53;;;6.03;;
3677;SDS011;1855;50.934;6.958;2023-06-14T00:04:33;6.30;;;5.80;;
3677;SDS011;1855;50.934;6.958;2023-06-14T00:07:00;6.07;;;5.57;;
3677;SDS011;1855;50.934;6.958;2023-06-14T00:09:27;6.20;;;5.60;;
3677;SDS011;1855;50.934;6.958;2023-06-14T00:11:54;6.55;;;5.95;;
3677;SDS011;1855;50.934;6.958;2023-06-14T00:14:22;6.30;;;5.70;;
3677;SDS011;1855;50.934;6.958;2023-06-14T00:16:49;6.40;;;5.80;;
3677;SDS011;1855;50.934;6.958;2023-06-14T00:19:17;6.32;;;5.72;;
3677;SDS011;1855;50.934;6.958;2023-06-14T00:21:44;6.70;;;6.00;;
3677;SDS011;1855;50.934;6.958;2023-06-14T00:24:11;6.70;;;6.10;;
3677;SDS011;1855;50.934;6.958;2023-06-14T00:26:38;6.45;;;5.85;;
3677;SDS011;1855;50.934;6.958;2023-06-14T00:29:06;7.45;;;6.85;;
3677;SDS011;1855;50.934;6.958;2023-06-14T00:31:34;7.30;;;6.70;;
3677;SDS011;1855;50.934;6.958;2023-06-14T00:34:01;8.13;;;7.43;;
3677;SDS011;1855;50.934;6.958;2023-06-14T00:36:28;6.75;;;6.25;;
3677;SDS011;1855;50.934;6.958;2023-06-14T00:38:55;7.03;;;6.18;;
3677;SDS011;1855;50.934;6.958;2023-06-14T00:41:22;7.00;;;6.30;;
3677;SDS011;1855;50.934;6.958;2023-06-14T00:43:50;6.90;;;6.30;;
3677;SDS011;1855;50.934;6.958;2023-06-14T00:46:18;6.32;;;5.80;;
3677;SDS011;1855;50.934;6.958;2023-06-14T00:48:48;6.60;;;6.00;;
3677;SDS011;1855;50.934;6.958;2023-06-14T00:51:15;6.30;;;5.70;;
3677;SDS011;1855;50.934;6.958;2023-06-14T00:53:42;6.80;;;6.10;;
3677;SDS011;1855;50.934;6.958;2023-06-14T00:56:11;6.80;;;6.30;;
3677;SDS011;1855;50.934;6.958;2023-06-14T00:58:40;6.70;;;6.00;;
3677;SDS011;1855;50.934;6.958;2023-06-14T01:01:07;6.15;;;5.65;;
3677;SDS011;1855;50.934;6.958;2023-06-14T01:03:34;6.53;;;6.03;;
3677;SDS011;1855;50.934;6.958;2023-06-14T01:06:05;6.50;;;5.90;;
3677;SDS011;1855;50.934;6.958;2023-06-14T01:08:38;7.70;;;6.20;;
3677;SDS011;1855;50.934;6.958;2023-06-14T01:11:10;6.20;;;5.70;;
3677;SDS011;1855;50.934;6.958;2023-06-14T01:13:39;6.57;;;5.97;;
3677;SDS011;1855;50.934;6.958;2023-06-14T01:16:08;6.72;;;6.13;;
3677;SDS011;1855;50.934;6.958;2023-06-14T01:18:37;6.75;;;6.15;;
3677;SDS011;1855;50.934;6.958;2023-06-14T01:21:05;6.32;;;5.82;;
3677;SDS011;1855;50.934;6.958;2023-06-14T01:23:35;6.30;;;5.80;;
3677;SDS011;1855;50.934;6.958;2023-06-14T01:26:02;6.25;;;5.75;;
3677;SDS011;1855;50.934;6.958;2023-06-14T01:28:29;9.00;;;8.40;;
3677;SDS011;1855;50.934;6.958;2023-06-14T01:30:58;8.20;;;7.60;;
3677;SDS011;1855;50.934;6.958;2023-06-14T01:33:29;8.27;;;7.60;;
3677;SDS011;1855;50.934;6.958;2023-06-14T01:35:56;7.90;;;7.30;;
3677;SDS011;1855;50.934;6.958;2023-06-14T01:38:24;7.97;;;7.38;;
3677;SDS011;1855;50.934;6.958;2023-06-14T01:40:54;8.55;;;7.85;;
3677;SDS011;1855;50.934;6.958;2023-06-14T01:43:21;8.40;;;7.80;;
3677;SDS011;1855;50.934;6.958;2023-06-14T01:45:49;8.30;;;7.60;;
3677;SDS011;1855;50.934;6.958;2023-06-14T01:48:17;8.75;;;8.05;;
3677;SDS011;1855;50.934;6.958;2023-06-14T01:50:45;8.13;;;7.40;;
3677;SDS011;1855;50.934;6.958;2023-06-14T01:53:12;6.50;;;6.00;;
3677;SDS011;1855;50.934;6.958;2023-06-14T01:55:39;6.97;;;5.90;;
3677;SDS011;1855;50.934;6.958;2023-06-14T01:58:10;5.88;;;5.32;;
3677;SDS011;1855;50.934;6.958;2023-06-14T02:00:38;6.28;;;5.75;;
3677;SDS011;1855;50.934;6.958;2023-06-14T02:03:05;5.78;;;5.28;;
3677;SDS011;1855;50.934;6.958;2023-06-14T02:05:32;6.20;;;5.60;;
3677;SDS011;1855;50.934;6.958;2023-06-14T02:07:59;6.45;;;5.88;;
3677;SDS011;1855;50.934;6.958;2023-06-14T02:10:27;6.30;;;5.80;;
3677;SDS011;1855;50.934;6.958;2023-06-14T02:12:54;5.57;;;5.07;;
3677;SDS011;1855;50.934;6.958;2023-06-14T02:15:22;5.85;;;5.45;;
3677;SDS011;1855;50.934;6.958;2023-06-14T02:17:52;6.28;;;5.68;;
3677;SDS011;1855;50.934;6.958;2023-06-14T02:20:19;8.40;;;7.80;;
3677;SDS011;1855;50.934;6.958;2023-06-14T02:22:46;8.63;;;8.10;;
3677;SDS011;1855;50.934;6.958;2023-06-14T02:25:13;9.30;;;8.70;;
3677;SDS011;1855;50.934;6.958;2023-06-14T02:27:40;8.75;;;8.15;;
3677;SDS011;1855;50.934;6.958;2023-06-14T02:30:08;8.50;;;7.90;;
3677;SDS011;1855;50.934;6.958;2023-06-14T02:32:36;8.80;;;8.10;;
3677;SDS011;1855;50.934;6.958;2023-06-14T02:35:06;9.68;;;8.98;;
3677;SDS011;1855;50.934;6.958;2023-06-14T02:37:33;8.40;;;7.80;;
3677;SDS011;1855;50.934;6.958;2023-06-14T02:40:00;9.00;;;8.30;;
3677;SDS011;1855;50.934;6.958;2023-06-14T02:42:27;9.10;;;8.40;;
3677;SDS011;1855;50.934;6.958;2023-06-14T02:44:54;8.02;;;7.43;;
3677;SDS011;1855;50.934;6.958;2023-06-14T02:47:21;7.03;;;6.53;;
3677;SDS011;1855;50.934;6.958;2023-06-14T02:49:50;8.32;;;7.72;;
3677;SDS011;1855;50.934;6.958;2023-06-14T02:52:18;9.32;;;8.63;;
3677;SDS011;1855;50.934;6.958;2023-06-14T02:54:45;7.63;;;7.05;;
3677;SDS011;1855;50.934;6.958;2023-06-14T02:57:12;7.10;;;6.50;;
3677;SDS011;1855;50.934;6.958;2023-06-14T02:59:39;7.25;;;6.75;;
3677;SDS011;1855;50.934;6.958;2023-06-14T03:02:06;8.85;;;8.15;;
3677;SDS011;1855;50.934;6.958;2023-06-14T03:04:33;6.30;;;5.80;;
3677;SDS011;1855;50.934;6.958;2023-06-14T03:07:03;6.43;;;5.93;;
3677;SDS011;1855;50.934;6.958;2023-06-14T03:09:34;6.43;;;5.82;;
3677;SDS011;1855;50.934;6.958;2023-06-14T03:12:01;6.15;;;5.65;;
3677;SDS011;1855;50.934;6.958;2023-06-14T03:14:28;6.20;;;5.60;;
3677;SDS011;1855;50.934;6.958;2023-06-14T03:16:56;5.85;;;5.35;;
3677;SDS011;1855;50.934;6.958;2023-06-14T03:19:24;6.10;;;5.50;;
3677;SDS011;1855;50.934;6.958;2023-06-14T03:21:51;6.30;;;5.70;;
3677;SDS011;1855;50.934;6.958;2023-06-14T03:24:23;6.15;;;5.55;;
3677;SDS011;1855;50.934;6.958;2023-06-14T03:26:52;5.97;;;5.25;;
3677;SDS011;1855;50.934;6.958;2023-06-14T03:29:19;6.45;;;5.65;;
3677;SDS011;1855;50.934;6.958;2023-06-14T03:31:56;5.32;;;4.93;;
3677;SDS011;1855;50.934;6.958;2023-06-14T03:34:23;5.65;;;5.15;;
3677;SDS011;1855;50.934;6.958;2023-06-14T03:36:50;5.40;;;5.00;;
3677;SDS011;1855;50.934;6.958;2023-06-14T03:39:18;5.95;;;5.32;;
3677;SDS011;1855;50.934;6.958;2023-06-14T03:41:46;5.95;;;5.45;;
3677;SDS011;1855;50.934;6.958;2023-06-14T03:44:14;5.70;;;5.20;;
3677;SDS011;1855;50.934;6.958;2023-06-14T03:46:41;5.95;;;5.35;;
3677;SDS011;1855;50.934;6.958;2023-06-14T03:49:08;5.60;;;5.10;;
3677;SDS011;1855;50.934;6.958;2023-06-14T03:51:36;6.68;;;5.90;;
3677;SDS011;1855;50.934;6.958;2023-06-14T03:54:03;6.78;;;5.80;;
3677;SDS011;1855;50.934;6.958;2023-06-14T03:56:30;5.70;;;5.20;;
3677;SDS011;1855;50.934;6.958;2023-06-14T03:58:58;6.50;;;5.90;;
3677;SDS011;1855;50.934;6.958;2023-06-14T04:01:25;5.70;;;5.20;;
3677;SDS011;1855;50.934;6.958;2023-06-14T04:03:55;7.13;;;5.57;;
3677;SDS011;1855;50.934;6.958;2023-06-14T04:06:22;6.10;;;5.50;;
3677;SDS011;1855;50.934;6.958;2023-06-14T04:08:57;6.15;;;5.25;;
3677;SDS011;1855;50.934;6.958;2023-06-14T04:11:28;7.47;;;5.55;;
3677;SDS011;1855;50.934;6.958;2023-06-14T04:13:56;7.88;;;5.55;;
3677;SDS011;1855;50.934;6.958;2023-06-14T04:16:24;5.72;;;5.22;;
3677;SDS011;1855;50.934;6.958;2023-06-14T04:18:51;6.10;;;5.40;;
3677;SDS011;1855;50.934;6.958;2023-06-14T04:21:19;6.57;;;5.88;;
3677;SDS011;1855;50.934;6.958;2023-06-14T04:23:48;5.60;;;5.10;;
3677;SDS011;1855;50.934;6.958;2023-06-14T04:26:18;8.18;;;5.57;;
3677;SDS011;1855;50.934;6.958;2023-06-14T04:28:46;5.60;;;5.20;;
3677;SDS011;1855;50.934;6.958;2023-06-14T04:31:14;6.00;;;5.50;;
3677;SDS011;1855;50.934;6.958;2023-06-14T04:33:42;5.85;;;5.25;;
3677;SDS011;1855;50.934;6.958;2023-06-14T04:36:11;6.20;;;5.60;;
3677;SDS011;1855;50.934;6.958;2023-06-14T04:38:39;5.55;;;5.05;;
3677;SDS011;1855;50.934;6.958;2023-06-14T04:41:07;5.60;;;5.10;;
3677;SDS011;1855;50.934;6.958;2023-06-14T04:43:37;6.10;;;5.50;;
3677;SDS011;1855;50.934;6.958;2023-06-14T04:46:04;5.10;;;4.70;;
3677;SDS011;1855;50.934;6.958;2023-06-14T04:48:35;5.80;;;5.25;;
3677;SDS011;1855;50.934;6.958;2023-06-14T04:51:04;6.47;;;4.80;;
3677;SDS011;1855;50.934;6.958;2023-06-14T04:53:31;5.43;;;4.63;;
3677;SDS011;1855;50.934;6.958;2023-06-14T04:55:59;5.05;;;4.60;;
3677;SDS011;1855;50.934;6.958;2023-06-14T04:58:27;5.47;;;4.68;;
3677;SDS011;1855;50.934;6.958;2023-06-14T05:00:55;4.80;;;4.40;;
3677;SDS011;1855;50.934;6.958;2023-06-14T05:03:24;6.45;;;5.20;;
3677;SDS011;1855;50.934;6.958;2023-06-14T05:05:51;5.53;;;5.03;;
3677;SDS011;1855;50.934;6.958;2023-06-14T05:08:20;5.63;;;4.60;;
3677;SDS011;1855;50.934;6.958;2023-06-14T05:10:49;6.00;;;5.00;;
3677;SDS011;1855;50.934;6.958;2023-06-14T05:13:16;5.10;;;4.60;;
3677;SDS011;1855;50.934;6.958;2023-06-14T05:15:43;5.78;;;5.18;;
3677;SDS011;1855;50.934;6.958;2023-06-14T05:18:10;5.43;;;4.60;;
3677;SDS011;1855;50.934;6.958;2023-06-14T05:20:38;5.78;;;5.18;;
3677;SDS011;1855;50.934;6.958;2023-06-14T05:23:06;7.00;;;4.50;;
3677;SDS011;1855;50.934;6.958;2023-06-14T05:25:35;5.43;;;4.93;;
3677;SDS011;1855;50.934;6.958;2023-06-14T05:28:02;5.15;;;4.65;;
3677;SDS011;1855;50.934;6.958;2023-06-14T05:30:30;5.10;;;4.60;;
3677;SDS011;1855;50.934;6.958;2023-06-14T05:32:58;6.68;;;4.32;;
3677;SDS011;1855;50.934;6.958;2023-06-14T05:35:25;4.63;;;4.00;;
3677;SDS011;1855;50.934;6.958;2023-06-14T05:37:52;5.57;;;4.10;;
3677;SDS011;1855;50.934;6.958;2023-06-14T05:40:21;4.60;;;4.18;;
3677;SDS011;1855;50.934;6.958;2023-06-14T05:42:49;4.53;;;4.13;;
3677;SDS011;1855;50.934;6.958;2023-06-14T05:45:16;5.72;;;4.38;;
3677;SDS011;1855;50.934;6.958;2023-06-14T05:47:43;4.60;;;4.20;;
3677;SDS011;1855;50.934;6.958;2023-06-14T05:50:10;5.32;;;4.28;;
3677;SDS011;1855;50.934;6.958;2023-06-14T05:52:37;5.07;;;4.03;;
3677;SDS011;1855;50.934;6.958;2023-06-14T05:55:05;5.00;;;4.50;;
3677;SDS011;1855;50.934;6.958;2023-06-14T05:57:32;4.68;;;4.28;;
3677;SDS011;1855;50.934;6.958;2023-06-14T06:00:00;4.28;;;3.88;;
3677;SDS011;1855;50.934;6.958;2023-06-14T06:02:34;3.80;;;3.50;;
3677;SDS011;1855;50.934;6.958;2023-06-14T06:05:01;4.85;;;4.00;;
3677;SDS011;1855;50.934;6.958;2023-06-14T06:07:28;6.63;;;3.80;;
3677;SDS011;1855;50.934;6.958;2023-06-14T06:09:55;4.00;;;3.30;;
3677;SDS011;1855;50.934;6.958;2023-06-14T06:12:22;4.90;;;3.67;;
3677;SDS011;1855;50.934;6.958;2023-06-14T06:14:50;4.43;;;3.60;;
3677;SDS011;1855;50.934;6.958;2023-06-14T06:17:18;4.32;;;3.78;;
3677;SDS011;1855;50.934;6.958;2023-06-14T06:19:45;3.80;;;3.40;;
3677;SDS011;1855;50.934;6.958;2023-06-14T06:22:12;4.20;;;3.80;;
3677;SDS011;1855;50.934;6.958;2023-06-14T06:24:39;4.05;;;3.60;;
3677;SDS011;1855;50.934;6.958;2023-06-14T06:27:06;3.95;;;3.65;;
3677;SDS011;1855;50.934;6.958;2023-06-14T06:29:33;4.65;;;3.50;;
3677;SDS011;1855;50.934;6.958;2023-06-14T06:32:00;5.60;;;3.40;;
3677;SDS011;1855;50.934;6.958;2023-06-14T06:34:29;4.93;;;3.35;;
3677;SDS011;1855;50.934;6.958;2023-06-14T06:36:56;6.10;;;3.67;;
3677;SDS011;1855;50.934;6.958;2023-06-14T06:39:23;4.88;;;3.60;;
3677;SDS011;1855;50.934;6.958;2023-06-14T06:41:51;4.18;;;3.20;;
3677;SDS011;1855;50.934;6.958;2023-06-14T06:44:18;3.95;;;3.25;;
3677;SDS011;1855;50.934;6.958;2023-06-14T06:46:45;4.80;;;3.28;;
3677;SDS011;1855;50.934;6.958;2023-06-14T06:49:12;3.40;;;3.10;;
3677;SDS011;1855;50.934;6.958;2023-06-14T06:51:42;3.80;;;3.10;;
3677;SDS011;1855;50.934;6.958;2023-06-14T06:54:09;4.43;;;2.92;;
3677;SDS011;1855;50.934;6.958;2023-06-14T06:56:36;3.60;;;3.30;;
3677;SDS011;1855;50.934;6.958;2023-06-14T06:59:03;3.38;;;3.00;;
3677;SDS011;1855;50.934;6.958;2023-06-14T07:01:31;3.13;;;2.88;;
3677;SDS011;1855;50.934;6.958;2023-06-14T07:03:58;4.63;;;3.50;;
3677;SDS011;1855;50.934;6.958;2023-06-14T07:06:26;3.67;;;3.28;;
3677;SDS011;1855;50.934;6.958;2023-06-14T07:08:55;3.67;;;3.30;;
3677;SDS011;1855;50.934;6.958;2023-06-14T07:11:26;3.90;;;3.10;;
3677;SDS011;1855;50.934;6.958;2023-06-14T07:13:53;3.72;;;3.05;;
3677;SDS011;1855;50.934;6.958;2023-06-14T07:16:20;5.78;;;3.25;;
3677;SDS011;1855;50.934;6.958;2023-06-14T07:18:48;3.30;;;3.00;;
3677;SDS011;1855;50.934;6.958;2023-06-14T07:21:15;4.35;;;3.10;;
3677;SDS011;1855;50.934;6.958;2023-06-14T07:23:42;3.53;;;3.00;;
3677;SDS011;1855;50.934;6.958;2023-06-14T07:26:11;3.92;;;2.78;;
3677;SDS011;1855;50.934;6.958;2023-06-14T07:28:38;3.55;;;3.10;;
3677;SDS011;1855;50.934;6.958;2023-06-14T07:31:05;4.32;;;2.80;;
3677;SDS011;1855;50.934;6.958;2023-06-14T07:33:32;3.25;;;2.80;;
3677;SDS011;1855;50.934;6.958;2023-06-14T07:35:59;2.95;;;2.30;;
3677;SDS011;1855;50.934;6.958;2023-06-14T07:38:27;3.38;;;3.00;;
3677;SDS011;1855;50.934;6.958;2023-06-14T07:40:54;2.90;;;2.30;;
3677;SDS011;1855;50.934;6.958;2023-06-14T07:43:22;4.63;;;2.40;;
3677;SDS011;1855;50.934;6.958;2023-06-14T07:45:49;3.45;;;2.70;;
3677;SDS011;1855;50.934;6.958;2023-06-14T07:48:16;3.25;;;2.17;;
3677;SDS011;1855;50.934;6.958;2023-06-14T07:50:43;3.20;;;2.40;;
3677;SDS011;1855;50.934;6.958;2023-06-14T07:53:10;2.97;;;2.20;;
3677;SDS011;1855;50.934;6.958;2023-06-14T07:55:37;2.90;;;2.40;;
3677;SDS011;1855;50.934;6.958;2023-06-14T07:58:04;2.42;;;2.10;;
3677;SDS011;1855;50.934;6.958;2023-06-14T08:00:33;2.13;;;1.90;;
3677;SDS011;1855;50.934;6.958;2023-06-14T08:03:00;2.47;;;1.90;;
3677;SDS011;1855;50.934;6.958;2023-06-14T08:05:27;2.85;;;2.03;;
3677;SDS011;1855;50.934;6.958;2023-06-14T08:07:55;2.78;;;1.90;;
3677;SDS011;1855;50.934;6.958;2023-06-14T08:10:22;3.70;;;2.03;;
3677;SDS011;1855;50.934;6.958;2023-06-14T08:12:49;4.43;;;2.00;;
3677;SDS011;1855;50.934;6.958;2023-06-14T08:15:16;2.47;;;2.03;;
3677;SDS011;1855;50.934;6.958;2023-06-14T08:17:45;1.90;;;1.70;;
3677;SDS011;1855;50.934;6.958;2023-06-14T08:20:12;1.90;;;1.45;;
3677;SDS011;1855;50.934;6.958;2023-06-14T08:22:41;2.00;;;1.35;;
3677;SDS011;1855;50.934;6.958;2023-06-14T08:25:11;1.70;;;1.20;;
3677;SDS011;1855;50.934;6.958;2023-06-14T08:27:38;1.40;;;1.20;;
3677;SDS011;1855;50.934;6.958;2023-06-14T08:30:06;2.40;;;1.40;;
3677;SDS011;1855;50.934;6.958;2023-06-14T08:32:35;2.00;;;1.23;;
3677;SDS011;1855;50.934;6.958;2023-06-14T08:35:03;1.70;;;1.40;;
3677;SDS011;1855;50.934;6.958;2023-06-14T08:37:32;1.60;;;1.50;;
3677;SDS011;1855;50.934;6.958;2023-06-14T08:39:59;1.90;;;1.55;;
3677;SDS011;1855;50.934;6.958;2023-06-14T08:42:26;1.60;;;1.40;;
3677;SDS011;1855;50.934;6.958;2023-06-14T08:44:55;2.40;;;1.50;;
3677;SDS011;1855;50.934;6.958;2023-06-14T08:47:22;1.73;;;1.37;;
3677;SDS011;1855;50.934;6.958;2023-06-14T08:49:51;2.60;;;1.80;;
3677;SDS011;1855;50.934;6.958;2023-06-14T08:52:21;2.20;;;1.50;;
3677;SDS011;1855;50.934;6.958;2023-06-14T08:54:49;5.10;;;1.50;;
3677;SDS011;1855;50.934;6.958;2023-06-14T08:57:16;2.15;;;1.52;;
3677;SDS011;1855;50.934;6.958;2023-06-14T08:59:46;1.70;;;1.50;;
3677;SDS011;1855;50.934;6.958;2023-06-14T09:02:17;1.60;;;1.40;;
3677;SDS011;1855;50.934;6.958;2023-06-14T09:04:44;2.50;;;1.50;;
3677;SDS011;1855;50.934;6.958;2023-06-14T09:07:11;3.35;;;1.60;;
3677;SDS011;1855;50.934;6.958;2023-06-14T09:09:40;3.08;;;1.80;;
3677;SDS011;1855;50.934;6.958;2023-06-14T09:12:08;1.80;;;1.30;;
3677;SDS011;1855;50.934;6.958;2023-06-14T09:14:36;1.88;;;1.40;;
3677;SDS011;1855;50.934;6.958;2023-06-14T09:17:06;2.60;;;1.50;;
3677;SDS011;1855;50.934;6.958;2023-06-14T09:19:33;1.58;;;1.48;;
3677;SDS011;1855;50.934;6.958;2023-06-14T09:22:02;2.15;;;1.60;;
3677;SDS011;1855;50.934;6.958;2023-06-14T09:24:30;2.92;;;1.40;;
3677;SDS011;1855;50.934;6.958;2023-06-14T09:26:58;2.40;;;1.40;;
3677;SDS011;1855;50.934;6.958;2023-06-14T09:29:25;2.90;;;1.40;;
3677;SDS011;1855;50.934;6.958;2023-06-14T09:31:52;1.50;;;1.38;;
3677;SDS011;1855;50.934;6.958;2023-06-14T09:34:20;2.42;;;1.70;;
3677;SDS011;1855;50.934;6.958;2023-06-14T09:36:49;1.40;;;1.30;;
3677;SDS011;1855;50.934;6.958;2023-06-14T09:39:17;2.30;;;1.70;;
3677;SDS011;1855;50.934;6.958;2023-06-14T09:41:44;1.80;;;1.70;;
3677;SDS011;1855;50.934;6.958;2023-06-14T09:44:13;1.90;;;1.70;;
3677;SDS011;1855;50.934;6.958;2023-06-14T09:46:40;2.78;;;1.40;;
3677;SDS011;1855;50.934;6.958;2023-06-14T09:49:08;2.40;;;1.30;;
3677;SDS011;1855;50.934;6.958;2023-06-14T09:51:36;3.03;;;1.80;;
3677;SDS011;1855;50.934;6.958;2023-06-14T09:54:09;2.10;;;1.45;;
3677;SDS011;1855;50.934;6.958;2023-06-14T09:56:41;1.70;;;1.30;;
3677;SDS011;1855;50.934;6.958;2023-06-14T09:59:09;2.97;;;1.50;;
3677;SDS011;1855;50.934;6.958;2023-06-14T10:01:39;4.00;;;1.70;;
3677;SDS011;1855;50.934;6.958;2023-06-14T10:04:08;2.45;;;1.30;;
3677;SDS011;1855;50.934;6.958;2023-06-14T10:06:36;1.90;;;1.30;;
3677;SDS011;1855;50.934;6.958;2023-06-14T10:09:04;1.70;;;1.58;;
3677;SDS011;1855;50.934;6.958;2023-06-14T10:11:34;2.70;;;1.50;;
3677;SDS011;1855;50.934;6.958;2023-06-14T10:14:02;2.47;;;1.40;;
3677;SDS011;1855;50.934;6.958;2023-06-14T10:16:30;2.00;;;1.50;;
3677;SDS011;1855;50.934;6.958;2023-06-14T10:19:02;2.30;;;1.48;;
3677;SDS011;1855;50.934;6.958;2023-06-14T10:21:32;2.37;;;1.30;;
3677;SDS011;1855;50.934;6.958;2023-06-14T10:24:01;1.67;;;1.15;;
3677;SDS011;1855;50.934;6.958;2023-06-14T10:26:30;3.00;;;2.65;;
3677;SDS011;1855;50.934;6.958;2023-06-14T10:28:58;1.90;;;1.50;;
3677;SDS011;1855;50.934;6.958;2023-06-14T10:31:42;2.47;;;1.50;;
3677;SDS011;1855;50.934;6.958;2023-06-14T10:34:10;2.08;;;1.40;;
3677;SDS011;1855;50.934;6.958;2023-06-14T10:36:38;1.52;;;1.40;;
3677;SDS011;1855;50.934;6.958;2023-06-14T10:39:07;2.20;;;1.60;;
3677;SDS011;1855;50.934;6.958;2023-06-14T10:41:34;1.50;;;1.20;;
3677;SDS011;1855;50.934;6.958;2023-06-14T10:47:00;1.60;;;1.15;;
3677;SDS011;1855;50.934;6.958;2023-06-14T10:49:38;2.00;;;1.30;;
3677;SDS011;1855;50.934;6.958;2023-06-14T10:52:10;1.30;;;1.20;;
3677;SDS011;1855;50.934;6.958;2023-06-14T10:57:40;1.80;;;1.40;;
3677;SDS011;1855;50.934;6.958;2023-06-14T11:00:07;1.53;;;1.40;;
3677;SDS011;1855;50.934;6.958;2023-06-14T11:05:41;1.50;;;1.30;;
3677;SDS011;1855;50.934;6.958;2023-06-14T11:08:18;1.50;;;1.30;;
3677;SDS011;1855;50.934;6.958;2023-06-14T11:10:48;1.30;;;1.20;;
3677;SDS011;1855;50.934;6.958;2023-06-14T11:13:15;1.50;;;1.30;;
3677;SDS011;1855;50.934;6.958;2023-06-14T11:15:43;1.40;;;1.30;;
3677;SDS011;1855;50.934;6.958;2023-06-14T11:18:11;1.30;;;1.20;;
3677;SDS011;1855;50.934;6.958;2023-06-14T11:20:39;2.10;;;1.30;;
3677;SDS011;1855;50.934;6.958;2023-06-14T11:23:08;1.30;;;1.20;;
3677;SDS011;1855;50.934;6.958;2023-06-14T11:25:35;1.70;;;1.25;;
3677;SDS011;1855;50.934;6.958;2023-06-14T11:28:02;1.60;;;1.50;;
3677;SDS011;1855;50.934;6.958;2023-06-14T11:30:29;2.20;;;1.42;;
3677;SDS011;1855;50.934;6.958;2023-06-14T11:32:57;1.83;;;1.60;;
3677;SDS011;1855;50.934;6.958;2023-06-14T11:35:24;1.70;;;1.30;;
3677;SDS011;1855;50.934;6.958;2023-06-14T11:37:52;1.40;;;1.27;;
3677;SDS011;1855;50.934;6.958;2023-06-14T11:40:22;2.15;;;1.20;;
3677;SDS011;1855;50.934;6.958;2023-06-14T11:42:50;3.10;;;1.33;;
3677;SDS011;1855;50.934;6.958;2023-06-14T11:45:18;1.70;;;1.23;;
3677;SDS011;1855;50.934;6.958;2023-06-14T11:47:45;1.30;;;1.20;;
3677;SDS011;1855;50.934;6.958;2023-06-14T11:50:12;2.30;;;1.20;;
3677;SDS011;1855;50.934;6.958;2023-06-14T11:52:39;1.80;;;0.97;;
3677;SDS011;1855;50.934;6.958;2023-06-14T11:55:06;1.67;;;1.20;;
3677;SDS011;1855;50.934;6.958;2023-06-14T11:57:35;1.20;;;1.10;;
3677;SDS011;1855;50.934;6.958;2023-06-14T12:00:04;1.95;;;1.20;;
3677;SDS011;1855;50.934;6.958;2023-06-14T12:02:37;1.50;;;1.10;;
3677;SDS011;1855;50.934;6.958;2023-06-14T12:05:05;1.60;;;1.10;;
3677;SDS011;1855;50.934;6.958;2023-06-14T12:07:35;1.35;;;1.00;;
3677;SDS011;1855;50.934;6.958;2023-06-14T12:10:05;1.20;;;1.10;;
3677;SDS011;1855;50.934;6.958;2023-06-14T12:12:36;1.30;;;1.10;;
3677;SDS011;1855;50.934;6.958;2023-06-14T12:15:03;1.35;;;0.82;;
3677;SDS011;1855;50.934;6.958;2023-06-14T12:17:31;1.10;;;0.80;;
3677;SDS011;1855;50.934;6.958;2023-06-14T12:19:58;1.20;;;1.00;;
3677;SDS011;1855;50.934;6.958;2023-06-14T12:22:25;0.82;;;0.80;;
3677;SDS011;1855;50.934;6.958;2023-06-14T12:24:55;0.95;;;0.90;;
3677;SDS011;1855;50.934;6.958;2023-06-14T12:27:22;0.90;;;0.70;;
3677;SDS011;1855;50.934;6.958;2023-06-14T12:30:04;1.88;;;1.00;;
3677;SDS011;1855;50.934;6.958;2023-06-14T12:32:32;1.30;;;1.10;;
3677;SDS011;1855;50.934;6.958;2023-06-14T12:34:59;0.80;;;0.80;;
3677;SDS011;1855;50.934;6.958;2023-06-14T12:37:26;0.90;;;0.90;;
3677;SDS011;1855;50.934;6.958;2023-06-14T12:39:54;2.10;;;1.02;;
3677;SDS011;1855;50.934;6.958;2023-06-14T12:42:21;2.42;;;1.35;;
3677;SDS011;1855;50.934;6.958;2023-06-14T12:44:48;2.33;;;1.10;;
3677;SDS011;1855;50.934;6.958;2023-06-14T12:47:16;1.25;;;0.85;;
3677;SDS011;1855;50.934;6.958;2023-06-14T12:49:43;1.40;;;1.00;;
3677;SDS011;1855;50.934;6.958;2023-06-14T12:52:10;1.48;;;0.80;;
3677;SDS011;1855;50.934;6.958;2023-06-14T12:54:37;1.33;;;0.82;;
3677;SDS011;1855;50.934;6.958;2023-06-14T12:57:06;1.30;;;0.80;;
3677;SDS011;1855;50.934;6.958;2023-06-14T12:59:33;0.95;;;0.70;;
3677;SDS011;1855;50.934;6.958;2023-06-14T13:02:10;1.27;;;0.70;;
3677;SDS011;1855;50.934;6.958;2023-06-14T13:04:38;0.82;;;0.60;;
3677;SDS011;1855;50.934;6.958;2023-06-14T13:07:05;1.60;;;0.60;;
3677;SDS011;1855;50.934;6.958;2023-06-14T13:09:32;1.90;;;0.70;;
3677;SDS011;1855;50.934;6.958;2023-06-14T13:12:00;1.50;;;0.60;;
3677;SDS011;1855;50.934;6.958;2023-06-14T13:14:27;1.95;;;0.70;;
3677;SDS011;1855;50.934;6.958;2023-06-14T13:16:54;2.77;;;0.70;;
3677;SDS011;1855;50.934;6.958;2023-06-14T13:19:21;2.17;;;1.10;;
3677;SDS011;1855;50.934;6.958;2023-06-14T13:21:49;1.90;;;1.00;;
3677;SDS011;1855;50.934;6.958;2023-06-14T13:24:16;1.17;;;0.82;;
3677;SDS011;1855;50.934;6.958;2023-06-14T13:26:43;1.58;;;0.90;;
3677;SDS011;1855;50.934;6.958;2023-06-14T13:29:10;1.35;;;0.90;;
3677;SDS011;1855;50.934;6.958;2023-06-14T13:31:37;1.00;;;0.90;;
3677;SDS011;1855;50.934;6.958;2023-06-14T13:34:05;2.00;;;1.00;;
3677;SDS011;1855;50.934;6.958;2023-06-14T13:36:32;1.92;;;1.10;;
3677;SDS011;1855;50.934;6.958;2023-06-14T13:39:01;2.10;;;1.00;;
3677;SDS011;1855;50.934;6.958;2023-06-14T13:41:28;1.60;;;1.20;;
3677;SDS011;1855;50.934;6.958;2023-06-14T13:43:58;2.67;;;1.20;;
3677;SDS011;1855;50.934;6.958;2023-06-14T13:46:25;2.00;;;1.58;;
3677;SDS011;1855;50.934;6.958;2023-06-14T13:48:52;2.00;;;1.27;;
3677;SDS011;1855;50.934;6.958;2023-06-14T13:51:20;2.20;;;1.20;;
3677;SDS011;1855;50.934;6.958;2023-06-14T13:53:47;2.08;;;1.10;;
3677;SDS011;1855;50.934;6.958;2023-06-14T13:56:17;2.27;;;1.37;;
3677;SDS011;1855;50.934;6.958;2023-06-14T13:58:44;2.10;;;1.30;;
3677;SDS011;1855;50.934;6.958;2023-06-14T14:01:11;2.22;;;1.50;;
3677;SDS011;1855;50.934;6.958;2023-06-14T14:03:38;1.73;;;1.27;;
3677;SDS011;1855;50.934;6.958;2023-06-14T14:06:05;1.90;;;1.47;;
3677;SDS011;1855;50.934;6.958;2023-06-14T14:08:32;2.30;;;2.20;;
3677;SDS011;1855;50.934;6.958;2023-06-14T14:10:59;1.92;;;1.35;;
3677;SDS011;1855;50.934;6.958;2023-06-14T14:13:28;1.77;;;1.23;;
3677;SDS011;1855;50.934;6.958;2023-06-14T14:15:55;2.47;;;1.27;;
3677;SDS011;1855;50.934;6.958;2023-06-14T14:18:22;2.40;;;1.20;;
3677;SDS011;1855;50.934;6.958;2023-06-14T14:20:49;3.88;;;1.20;;
3677;SDS011;1855;50.934;6.958;2023-06-14T14:23:16;1.30;;;1.20;;
3677;SDS011;1855;50.934;6.958;2023-06-14T14:25:45;1.60;;;1.50;;
3677;SDS011;1855;50.934;6.958;2023-06-14T14:28:12;1.55;;;1.45;;
3677;SDS011;1855;50.934;6.958;2023-06-14T14:30:42;2.03;;;1.60;;
3677;SDS011;1855;50.934;6.958;2023-06-14T14:33:09;1.95;;;1.33;;
3677;SDS011;1855;50.934;6.958;2023-06-14T14:35:40;1.60;;;1.50;;
3677;SDS011;1855;50.934;6.958;2023-06-14T14:38:08;1.30;;;1.20;;
3677;SDS011;1855;50.934;6.958;2023-06-14T14:40:35;1.60;;;1.30;;
3677;SDS011;1855;50.934;6.958;2023-06-14T14:43:02;1.40;;;1.30;;
3677;SDS011;1855;50.934;6.958;2023-06-14T14:45:30;2.30;;;1.52;;
3677;SDS011;1855;50.934;6.958;2023-06-14T14:47:59;1.77;;;1.42;;
3677;SDS011;1855;50.934;6.958;2023-06-14T14:50:27;2.08;;;1.30;;
3677;SDS011;1855;50.934;6.958;2023-06-14T14:52:54;2.50;;;1.45;;
3677;SDS011;1855;50.934;6.958;2023-06-14T14:55:21;2.22;;;1.40;;
3677;SDS011;1855;50.934;6.958;2023-06-14T14:57:48;1.50;;;1.40;;
3677;SDS011;1855;50.934;6.958;2023-06-14T15:00:15;2.17;;;1.50;;
3677;SDS011;1855;50.934;6.958;2023-06-14T15:02:43;2.20;;;1.30;;
3677;SDS011;1855;50.934;6.958;2023-06-14T15:05:11;1.50;;;1.40;;
3677;SDS011;1855;50.934;6.958;2023-06-14T15:07:38;1.90;;;1.40;;
3677;SDS011;1855;50.934;6.958;2023-06-14T15:10:06;1.70;;;1.50;;
3677;SDS011;1855;50.934;6.958;2023-06-14T15:12:33;1.70;;;1.40;;
3677;SDS011;1855;50.934;6.958;2023-06-14T15:15:00;1.90;;;1.80;;
3677;SDS011;1855;50.934;6.958;2023-06-14T15:17:27;1.50;;;1.40;;
3677;SDS011;1855;50.934;6.958;2023-06-14T15:19:55;1.50;;;1.40;;
3677;SDS011;1855;50.934;6.958;2023-06-14T15:22:23;2.30;;;1.50;;
3677;SDS011;1855;50.934;6.958;2023-06-14T15:24:50;2.40;;;1.58;;
3677;SDS011;1855;50.934;6.958;2023-06-14T15:27:17;2.85;;;1.50;;
3677;SDS011;1855;50.934;6.958;2023-06-14T15:29:44;2.20;;;1.50;;